Time;durP1;ratioP1;P1;durP2;ratioP2;P2;SDS_P1;SDS_P2;PMS_P1;PMS_P2;Temp;Humidity;BMP_temperature;BMP_pressure;BME280_temperature;BME280_humidity;BME280_pressure;Samples;Min_cycle;Max_cycle;Signal;HPM_P1;HPM_P2
2022/11/03 00:00:59;;;;;;;82.18;56.33;;;11.80;99.90;;;;;;5053948;28;20040;-78
2022/11/03 00:03:37;;;;;;;87.70;52.33;;;11.80;99.90;;;;;;5061189;28;20108;-73
2022/11/03 00:06:06;;;;;;;76.75;47.63;;;11.80;99.90;;;;;;5054239;28;20025;-78
2022/11/03 00:08:44;;;;;;;77.53;44.22;;;11.90;99.90;;;;;;5051334;28;20033;-73
2022/11/03 00:11:13;;;;;;;75.10;46.30;;;11.80;99.90;;;;;;5049784;28;20040;-75
2022/11/03 00:13:41;;;;;;;69.78;42.55;;;11.80;99.90;;;;;;5072067;28;20083;-74
2022/11/03 00:16:09;;;;;;;62.33;41.35;;;11.80;99.90;;;;;;5058325;28;20545;-74
2022/11/03 00:18:35;;;;;;;66.80;41.50;;;11.80;99.90;;;;;;5051873;28;20032;-74
2022/11/03 00:21:07;;;;;;;70.97;46.78;;;11.80;99.90;;;;;;5071712;28;20637;-75
2022/11/03 00:23:36;;;;;;;64.82;39.95;;;11.80;99.90;;;;;;5065111;28;20063;-74
2022/11/03 00:26:13;;;;;;;66.60;39.45;;;11.70;99.90;;;;;;5057664;28;20203;-76
2022/11/03 00:28:40;;;;;;;67.90;41.15;;;11.60;99.90;;;;;;5044876;28;20124;-74
2022/11/03 00:31:15;;;;;;;67.53;40.65;;;11.50;99.90;;;;;;5062289;28;20021;-75
2022/11/03 00:33:42;;;;;;;63.78;41.35;;;11.50;99.90;;;;;;5063283;28;20091;-75
2022/11/03 00:36:12;;;;;;;68.90;39.97;;;11.50;99.90;;;;;;5052705;28;20028;-75
2022/11/03 00:38:38;;;;;;;67.63;42.50;;;11.50;99.90;;;;;;5055781;28;20063;-74
2022/11/03 00:41:05;;;;;;;64.45;40.70;;;11.50;99.90;;;;;;5070197;28;20044;-77
2022/11/03 00:43:33;;;;;;;61.33;37.85;;;11.50;99.90;;;;;;5066281;28;20438;-74
2022/11/03 00:45:59;;;;;;;65.07;39.55;;;11.50;99.90;;;;;;5065485;28;20081;-74
2022/11/03 00:48:49;;;;;;;64.88;40.40;;;11.40;99.90;;;;;;5059560;28;20537;-76
2022/11/03 00:51:26;;;;;;;61.50;39.17;;;11.40;99.90;;;;;;5048817;28;20041;-74
2022/11/03 00:53:59;;;;;;;59.95;40.95;;;11.40;99.90;;;;;;5035645;28;20045;-73
2022/11/03 00:56:32;;;;;;;61.80;37.90;;;11.40;99.90;;;;;;5042867;28;20076;-74
2022/11/03 00:59:00;;;;;;;60.90;37.38;;;11.40;99.90;;;;;;5048950;28;20033;-74
2022/11/03 01:01:34;;;;;;;60.75;37.03;;;11.40;99.90;;;;;;5049253;28;20477;-75
2022/11/03 01:07:00;;;;;;;65.22;37.25;;;11.40;99.90;;;;;;5011963;28;20034;-77
2022/11/03 01:09:29;;;;;;;58.20;36.38;;;11.40;99.90;;;;;;5001377;28;20050;-76
2022/11/03 01:11:58;;;;;;;60.97;36.38;;;11.40;99.90;;;;;;5025975;28;20467;-77
2022/11/03 01:14:26;;;;;;;58.20;35.97;;;11.30;99.90;;;;;;5026488;28;20050;-75
2022/11/03 01:16:52;;;;;;;66.18;38.10;;;11.30;99.90;;;;;;4995264;28;20502;-74
2022/11/03 01:19:18;;;;;;;72.82;42.63;;;11.30;99.90;;;;;;4988032;28;20049;-75
2022/11/03 01:21:44;;;;;;;67.63;38.88;;;11.30;99.90;;;;;;4987767;28;20031;-75
2022/11/03 01:24:10;;;;;;;75.40;40.95;;;11.30;99.90;;;;;;4993543;28;20516;-74
2022/11/03 01:26:36;;;;;;;67.90;40.38;;;11.20;99.90;;;;;;4988069;28;20042;-73
2022/11/03 01:29:02;;;;;;;70.40;43.42;;;11.20;99.90;;;;;;5002455;28;20046;-74
2022/11/03 01:31:28;;;;;;;77.63;43.67;;;11.20;99.90;;;;;;4993611;28;20030;-74
2022/11/03 01:33:55;;;;;;;109.53;52.35;;;11.20;99.90;;;;;;5007175;28;20121;-74
2022/11/03 01:36:21;;;;;;;83.97;44.85;;;11.20;99.90;;;;;;5006961;28;20034;-74
2022/11/03 01:38:47;;;;;;;108.40;49.67;;;11.20;99.90;;;;;;5007367;28;20071;-73
2022/11/03 01:41:17;;;;;;;94.90;48.05;;;11.30;99.90;;;;;;5007188;28;20092;-74
2022/11/03 01:43:44;;;;;;;94.63;46.60;;;11.30;99.90;;;;;;5022870;28;20116;-77
2022/11/03 01:46:10;;;;;;;82.75;44.58;;;11.20;99.90;;;;;;5029513;28;20051;-74
2022/11/03 01:48:40;;;;;;;82.15;45.85;;;11.20;99.90;;;;;;5033424;28;20025;-73
2022/11/03 01:51:08;;;;;;;86.63;45.78;;;11.30;99.90;;;;;;5029258;28;20479;-74
2022/11/03 01:53:37;;;;;;;87.57;46.80;;;11.30;99.90;;;;;;5029434;28;20054;-73
2022/11/03 01:56:03;;;;;;;82.72;43.63;;;11.30;99.90;;;;;;5029510;28;20801;-74
2022/11/03 01:58:36;;;;;;;78.85;44.28;;;11.30;99.90;;;;;;5029327;28;20088;-73
2022/11/03 02:01:02;;;;;;;83.25;43.45;;;11.30;99.90;;;;;;5029392;28;20471;-72
2022/11/03 02:03:34;;;;;;;82.22;42.88;;;11.30;99.90;;;;;;5029633;28;20108;-73
2022/11/03 02:06:01;;;;;;;75.97;41.78;;;11.40;99.90;;;;;;5029454;28;20104;-72
2022/11/03 02:08:40;;;;;;;68.30;39.08;;;11.40;99.90;;;;;;5029663;28;20517;-74
2022/11/03 02:13:51;;;;;;;65.32;35.78;;;11.40;99.90;;;;;;5031528;28;20025;-74
2022/11/03 02:16:18;;;;;;;70.22;40.58;;;11.40;99.90;;;;;;5031887;28;20220;-73
2022/11/03 02:18:45;;;;;;;69.13;37.78;;;11.40;99.90;;;;;;5029535;28;20487;-77
2022/11/03 02:21:28;;;;;;;65.20;37.47;;;11.40;99.90;;;;;;5044442;28;20056;-74
2022/11/03 02:24:04;;;;;;;65.18;38.13;;;11.40;99.90;;;;;;5029070;28;20021;-74
2022/11/03 02:26:30;;;;;;;75.07;38.90;;;11.30;99.90;;;;;;5029199;28;20041;-73
2022/11/03 02:28:56;;;;;;;60.80;37.88;;;11.30;99.90;;;;;;5029232;28;20017;-77
2022/11/03 02:31:40;;;;;;;60.97;36.50;;;11.30;99.90;;;;;;5029500;28;20226;-74
2022/11/03 02:34:09;;;;;;;59.28;34.85;;;11.30;99.90;;;;;;5030695;28;20042;-74
2022/11/03 02:36:58;;;;;;;70.05;37.33;;;11.30;99.90;;;;;;5036459;28;20503;-74
2022/11/03 02:39:41;;;;;;;59.28;32.97;;;11.20;99.90;;;;;;5037030;28;20056;-78
2022/11/03 02:42:09;;;;;;;105.78;40.20;;;11.20;99.90;;;;;;5033446;28;20032;-75
2022/11/03 02:44:37;;;;;;;72.43;38.55;;;11.00;99.90;;;;;;5032941;28;20556;-75
2022/11/03 02:47:06;;;;;;;57.17;36.85;;;11.00;99.90;;;;;;5033112;28;20030;-76
2022/11/03 02:49:47;;;;;;;124.55;44.17;;;10.90;99.90;;;;;;5033178;28;20490;-74
2022/11/03 02:52:34;;;;;;;61.13;35.25;;;10.90;99.90;;;;;;5032570;28;20025;-76
2022/11/03 02:55:08;;;;;;;61.65;33.58;;;10.90;99.90;;;;;;5032801;28;20045;-74
2022/11/03 02:57:37;;;;;;;61.45;37.30;;;10.90;99.90;;;;;;5032570;28;20054;-74
2022/11/03 03:00:05;;;;;;;63.22;35.50;;;10.90;99.90;;;;;;5032623;28;20044;-76
2022/11/03 03:02:51;;;;;;;91.53;37.15;;;11.00;99.90;;;;;;5032765;28;20022;-74
2022/11/03 03:05:19;;;;;;;234.02;61.28;;;10.90;99.90;;;;;;5032622;28;20041;-73
2022/11/03 03:07:49;;;;;;;110.15;44.45;;;10.70;99.90;;;;;;5032432;28;20017;-73
2022/11/03 03:10:18;;;;;;;119.65;38.75;;;10.70;99.90;;;;;;5032532;28;20025;-77
2022/11/03 03:12:53;;;;;;;87.25;36.67;;;10.60;99.90;;;;;;5032326;28;20054;-74
2022/11/03 03:15:27;;;;;;;68.88;39.22;;;10.70;99.90;;;;;;5032181;28;20041;-75
2022/11/03 03:18:02;;;;;;;79.40;40.40;;;10.80;99.90;;;;;;5034787;28;20029;-76
2022/11/03 03:20:37;;;;;;;70.30;39.60;;;10.80;99.90;;;;;;5032077;28;20536;-77
2022/11/03 03:23:21;;;;;;;257.98;64.68;;;10.90;99.90;;;;;;5032000;28;20038;-73
2022/11/03 03:26:12;;;;;;;121.43;43.92;;;10.80;99.90;;;;;;5032070;28;20564;-76
2022/11/03 03:29:05;;;;;;;84.45;42.17;;;10.80;99.90;;;;;;5009790;28;20026;-77
2022/11/03 03:31:37;;;;;;;302.27;69.75;;;10.70;99.90;;;;;;5009199;28;20034;-74
2022/11/03 03:34:04;;;;;;;131.02;43.75;;;10.70;99.90;;;;;;5009255;28;20046;-77
2022/11/03 03:36:31;;;;;;;156.93;47.08;;;10.80;99.90;;;;;;5009360;28;20029;-74
2022/11/03 03:39:01;;;;;;;149.27;44.63;;;10.70;99.90;;;;;;5009221;28;20117;-71
2022/11/03 03:41:31;;;;;;;336.67;68.78;;;10.70;99.90;;;;;;5005611;28;20032;-77
2022/11/03 03:44:02;;;;;;;219.07;55.85;;;10.70;99.90;;;;;;5009382;28;20061;-72
2022/11/03 03:46:43;;;;;;;214.10;58.35;;;10.60;99.90;;;;;;5008682;28;20496;-74
2022/11/03 03:49:09;;;;;;;112.22;45.65;;;10.50;99.90;;;;;;5009138;28;20042;-75
2022/11/03 03:51:36;;;;;;;128.05;46.72;;;10.50;99.90;;;;;;5009246;28;20025;-74
2022/11/03 03:54:02;;;;;;;106.82;47.20;;;10.60;99.90;;;;;;5008972;28;20072;-74
2022/11/03 03:56:44;;;;;;;111.45;48.42;;;10.60;99.90;;;;;;5009298;28;20504;-75
2022/11/03 03:59:10;;;;;;;136.55;46.72;;;10.70;99.90;;;;;;5009124;28;20404;-73
2022/11/03 04:01:36;;;;;;;229.65;56.35;;;10.60;99.90;;;;;;5009387;28;20037;-74
2022/11/03 04:04:02;;;;;;;225.45;54.17;;;10.40;99.90;;;;;;5009029;28;20038;-75
2022/11/03 04:06:28;;;;;;;118.20;44.85;;;10.40;99.90;;;;;;5031619;28;20442;-76
2022/11/03 04:08:54;;;;;;;109.15;44.60;;;10.40;99.90;;;;;;5031274;28;20021;-74
2022/11/03 04:22:17;;;;;;;134.93;47.80;;;10.30;99.90;;;;;;5030913;28;20025;-74
2022/11/03 04:24:48;;;;;;;170.05;48.00;;;10.30;99.90;;;;;;5030992;28;20112;-76
2022/11/03 04:27:25;;;;;;;144.85;41.30;;;10.30;99.90;;;;;;5035069;28;20438;-76
2022/11/03 04:29:55;;;;;;;125.95;42.50;;;10.30;99.90;;;;;;5030948;28;20030;-75
2022/11/03 04:32:20;;;;;;;181.18;48.05;;;10.30;99.90;;;;;;5045798;28;20433;-75
2022/11/03 04:34:47;;;;;;;108.93;41.20;;;10.30;99.90;;;;;;5031058;28;20097;-75
2022/11/03 04:37:14;;;;;;;104.95;42.53;;;10.30;99.90;;;;;;5033082;28;20429;-78
2022/11/03 04:39:40;;;;;;;130.60;41.90;;;10.30;99.90;;;;;;5031841;28;20108;-75
2022/11/03 04:42:25;;;;;;;178.05;44.20;;;10.40;99.90;;;;;;5034920;28;20148;-75
2022/11/03 04:44:51;;;;;;;90.13;37.25;;;10.40;99.90;;;;;;5045987;28;20429;-75
2022/11/03 04:47:17;;;;;;;92.72;41.88;;;10.40;99.90;;;;;;5051016;28;20060;-76
2022/11/03 04:49:47;;;;;;;80.55;42.47;;;10.50;99.90;;;;;;5038370;28;20498;-78
2022/11/03 04:52:19;;;;;;;81.88;40.88;;;10.60;99.90;;;;;;5030320;28;20033;-76
2022/11/03 04:54:48;;;;;;;85.57;43.90;;;10.70;99.90;;;;;;5030129;28;20053;-75
2022/11/03 04:57:16;;;;;;;75.75;41.80;;;10.70;99.90;;;;;;5029122;28;20029;-75
2022/11/03 04:59:45;;;;;;;75.10;41.55;;;10.80;99.90;;;;;;5030281;28;20116;-77
2022/11/03 05:02:15;;;;;;;80.90;41.08;;;10.80;99.90;;;;;;5030260;28;20024;-73
2022/11/03 05:04:44;;;;;;;90.43;43.13;;;10.90;99.90;;;;;;5030374;28;20037;-75
2022/11/03 05:07:35;;;;;;;92.18;42.38;;;11.00;99.90;;;;;;5031421;28;20021;-76
2022/11/03 05:10:03;;;;;;;85.30;42.65;;;11.00;99.90;;;;;;5007434;28;20061;-76
2022/11/03 05:12:29;;;;;;;76.03;37.45;;;11.10;99.90;;;;;;5007640;28;20034;-78
2022/11/03 05:14:55;;;;;;;77.15;37.20;;;11.10;99.90;;;;;;5007733;28;20077;-74
2022/11/03 05:17:24;;;;;;;72.00;35.67;;;11.10;99.90;;;;;;5006853;28;20053;-77
2022/11/03 05:20:01;;;;;;;78.45;35.38;;;11.10;99.90;;;;;;5007346;28;20622;-74
2022/11/03 05:22:34;;;;;;;77.10;33.05;;;11.10;99.90;;;;;;5007403;28;20026;-74
2022/11/03 05:25:27;;;;;;;71.25;31.48;;;11.00;99.90;;;;;;5006167;28;20044;-75
2022/11/03 05:27:53;;;;;;;58.08;29.75;;;10.90;99.90;;;;;;5011355;28;20041;-75
2022/11/03 05:30:18;;;;;;;77.70;35.35;;;10.90;99.90;;;;;;5005324;28;20044;-74
2022/11/03 05:32:44;;;;;;;65.93;33.05;;;10.90;99.90;;;;;;5003181;28;20089;-71
2022/11/03 05:35:21;;;;;;;78.60;33.80;;;10.90;99.90;;;;;;5000987;28;20496;-72
2022/11/03 05:37:49;;;;;;;57.20;33.35;;;10.90;99.90;;;;;;4998773;28;20069;-74
2022/11/03 05:40:25;;;;;;;69.13;34.25;;;10.90;99.90;;;;;;4994293;28;20058;-74
2022/11/03 05:43:01;;;;;;;61.63;32.28;;;10.90;99.90;;;;;;4997281;28;20155;-74
2022/11/03 05:45:30;;;;;;;61.70;32.10;;;11.00;99.90;;;;;;5008531;28;20538;-74
2022/11/03 05:47:57;;;;;;;62.20;35.88;;;11.00;99.90;;;;;;5044520;28;20040;-74
2022/11/03 05:50:28;;;;;;;63.00;35.08;;;11.10;99.90;;;;;;5059035;28;20028;-74
2022/11/03 05:53:07;;;;;;;70.45;36.60;;;11.10;99.90;;;;;;5070685;28;20103;-74
2022/11/03 05:55:34;;;;;;;59.25;35.70;;;11.10;99.90;;;;;;5069892;28;20122;-75
2022/11/03 05:58:12;;;;;;;70.90;35.55;;;11.00;99.90;;;;;;5056903;28;20637;-74
2022/11/03 06:00:41;;;;;;;67.72;35.28;;;11.00;99.90;;;;;;5070331;28;20025;-75
2022/11/03 06:03:12;;;;;;;68.25;35.30;;;11.00;99.90;;;;;;5064311;28;20123;-74
2022/11/03 06:05:39;;;;;;;66.50;33.10;;;11.00;99.90;;;;;;5064298;28;20056;-74
2022/11/03 06:08:14;;;;;;;89.28;34.90;;;11.00;99.90;;;;;;5070787;28;20052;-74
2022/11/03 06:10:47;;;;;;;86.57;37.58;;;11.00;99.90;;;;;;5074414;28;20020;-74
2022/11/03 06:13:18;;;;;;;87.03;35.80;;;11.00;99.90;;;;;;5074351;28;20028;-74
2022/11/03 06:15:46;;;;;;;101.18;34.85;;;10.90;99.90;;;;;;5074715;28;20127;-74
2022/11/03 06:18:24;;;;;;;68.40;34.92;;;10.90;99.90;;;;;;5067128;28;20025;-74
2022/11/03 06:20:55;;;;;;;84.15;35.60;;;10.90;99.90;;;;;;5070249;28;20028;-74
2022/11/03 06:23:22;;;;;;;75.22;33.85;;;10.90;99.90;;;;;;5070513;28;20340;-74
2022/11/03 06:25:50;;;;;;;70.68;31.60;;;10.90;99.90;;;;;;5065604;28;20021;-75
2022/11/03 06:28:31;;;;;;;66.40;34.75;;;10.90;99.90;;;;;;5074000;28;20451;-74
2022/11/03 06:30:57;;;;;;;67.82;32.58;;;10.80;99.90;;;;;;5074036;28;20037;-75
2022/11/03 06:33:28;;;;;;;58.05;31.00;;;10.90;99.90;;;;;;5073988;28;20020;-74
2022/11/03 06:36:17;;;;;;;61.17;31.55;;;11.00;99.90;;;;;;5067433;28;20040;-74
2022/11/03 06:38:49;;;;;;;61.25;31.25;;;11.00;99.90;;;;;;5059626;28;20093;-75
2022/11/03 06:41:23;;;;;;;58.63;30.10;;;11.00;99.90;;;;;;5066634;28;20017;-74
2022/11/03 06:43:49;;;;;;;58.92;27.20;;;11.00;99.90;;;;;;5072454;28;20067;-75
2022/11/03 06:46:18;;;;;;;52.30;28.58;;;11.00;99.90;;;;;;5063524;28;20094;-74
2022/11/03 06:48:45;;;;;;;47.97;28.83;;;11.10;99.90;;;;;;5071026;28;20032;-74
2022/11/03 06:51:24;;;;;;;50.80;28.70;;;11.20;99.90;;;;;;5073702;28;20017;-75
2022/11/03 06:53:52;;;;;;;66.82;30.00;;;11.20;99.90;;;;;;5056624;28;20036;-74
2022/11/03 06:56:23;;;;;;;55.53;31.23;;;11.30;99.90;;;;;;5063101;28;20052;-74
2022/11/03 06:58:52;;;;;;;78.35;31.83;;;11.30;99.90;;;;;;5059549;28;20078;-74
2022/11/03 07:01:31;;;;;;;51.90;31.10;;;11.30;99.90;;;;;;5073805;28;20055;-74
2022/11/03 07:04:00;;;;;;;51.70;31.90;;;11.20;99.90;;;;;;5073869;28;20375;-74
2022/11/03 07:06:30;;;;;;;75.70;32.92;;;11.30;99.90;;;;;;5073810;28;20462;-75
2022/11/03 07:09:01;;;;;;;62.25;35.22;;;11.40;99.90;;;;;;5073015;28;20077;-75
2022/11/03 07:11:48;;;;;;;57.30;33.95;;;11.40;99.90;;;;;;5073426;28;20021;-74
2022/11/03 07:14:21;;;;;;;50.63;33.13;;;11.50;99.90;;;;;;5067433;28;20020;-75
2022/11/03 07:16:53;;;;;;;60.85;35.53;;;11.60;99.90;;;;;;5073536;28;20060;-74
2022/11/03 07:19:47;;;;;;;55.00;36.10;;;11.50;99.90;;;;;;5071083;28;21129;-74
2022/11/03 07:22:13;;;;;;;62.40;38.22;;;11.60;99.90;;;;;;5062144;28;20090;-74
2022/11/03 07:24:43;;;;;;;56.95;36.10;;;11.70;99.90;;;;;;5068531;28;20025;-74
2022/11/03 07:27:22;;;;;;;51.60;33.28;;;11.80;99.90;;;;;;5064860;28;20128;-75
2022/11/03 07:29:55;;;;;;;50.72;32.92;;;11.80;99.90;;;;;;5073485;28;20025;-75
2022/11/03 07:32:25;;;;;;;51.22;31.02;;;11.80;99.90;;;;;;5070899;28;20676;-74
2022/11/03 07:35:04;;;;;;;50.40;30.50;;;11.80;99.90;;;;;;5071752;28;20029;-74
2022/11/03 07:37:30;;;;;;;47.75;29.10;;;11.80;99.90;;;;;;5064959;28;20550;-75
2022/11/03 07:39:57;;;;;;;46.08;27.85;;;11.90;99.90;;;;;;5068085;28;20112;-75
2022/11/03 07:42:25;;;;;;;47.10;30.25;;;11.90;99.90;;;;;;5069310;28;20087;-78
2022/11/03 07:44:54;;;;;;;78.35;28.15;;;11.90;99.90;;;;;;5071847;28;20032;-74
2022/11/03 07:47:26;;;;;;;52.60;28.95;;;11.80;99.90;;;;;;5065936;28;20023;-74
2022/11/03 07:49:54;;;;;;;72.78;41.15;;;11.80;99.90;;;;;;5056375;28;20025;-74
2022/11/03 07:52:23;;;;;;;78.47;43.55;;;11.70;99.90;;;;;;5058882;28;20025;-74
2022/11/03 07:54:53;;;;;;;60.00;33.25;;;11.70;99.90;;;;;;5052631;28;20767;-75
2022/11/03 07:57:26;;;;;;;58.45;34.30;;;11.80;99.90;;;;;;5062700;28;20536;-74
2022/11/03 08:00:00;;;;;;;62.47;33.95;;;11.90;99.90;;;;;;5052227;28;20036;-74
2022/11/03 08:02:49;;;;;;;67.88;39.92;;;12.00;99.90;;;;;;5068204;28;20089;-74
2022/11/03 08:05:15;;;;;;;99.25;57.70;;;12.20;99.90;;;;;;5051331;28;20056;-74
2022/11/03 08:07:41;;;;;;;65.22;39.15;;;12.00;99.90;;;;;;5065770;28;20669;-75
2022/11/03 08:10:12;;;;;;;61.88;36.47;;;12.10;99.90;;;;;;5054126;28;20083;-74
2022/11/03 08:12:38;;;;;;;69.25;40.13;;;12.10;99.90;;;;;;5069976;28;20063;-74
2022/11/03 08:15:04;;;;;;;61.05;37.63;;;12.30;99.90;;;;;;5065219;28;20072;-74
2022/11/03 08:17:30;;;;;;;89.13;50.80;;;12.30;99.90;;;;;;5071854;28;20086;-74
2022/11/03 08:19:56;;;;;;;77.40;41.85;;;12.30;99.90;;;;;;5060214;28;20032;-75
2022/11/03 08:22:24;;;;;;;119.63;72.32;;;12.30;99.90;;;;;;5072426;28;20032;-75
2022/11/03 08:24:51;;;;;;;92.93;40.00;;;12.40;99.90;;;;;;5065259;28;20025;-74
2022/11/03 08:27:18;;;;;;;94.60;51.45;;;12.20;99.90;;;;;;5055196;28;20112;-74
2022/11/03 08:29:44;;;;;;;97.35;51.85;;;12.20;99.90;;;;;;5069499;28;20082;-74
2022/11/03 08:32:10;;;;;;;90.25;48.70;;;12.40;99.90;;;;;;5056395;28;20507;-74
2022/11/03 08:34:36;;;;;;;63.90;39.75;;;12.50;99.90;;;;;;5071802;28;20029;-74
2022/11/03 08:37:02;;;;;;;68.05;40.88;;;12.60;99.90;;;;;;5067519;28;20025;-72
2022/11/03 08:39:30;;;;;;;82.93;43.25;;;12.70;99.90;;;;;;5062731;28;20467;-74
2022/11/03 08:41:56;;;;;;;76.32;42.03;;;12.80;99.90;;;;;;5055372;28;20025;-76
2022/11/03 08:44:21;;;;;;;74.85;43.75;;;12.60;99.90;;;;;;5061994;28;20482;-75
2022/11/03 08:46:48;;;;;;;81.13;38.58;;;12.60;99.90;;;;;;5070796;28;20055;-74
2022/11/03 08:49:14;;;;;;;60.40;34.80;;;12.50;99.90;;;;;;5070832;28;20028;-74
2022/11/03 08:51:40;;;;;;;63.92;36.63;;;12.60;99.90;;;;;;5070504;28;20029;-74
2022/11/03 08:54:06;;;;;;;72.28;39.88;;;12.70;99.90;;;;;;5061855;28;20028;-75
2022/11/03 08:56:31;;;;;;;67.70;38.83;;;12.70;99.90;;;;;;5071002;28;20070;-74
2022/11/03 08:58:57;;;;;;;77.20;43.40;;;12.90;99.90;;;;;;5071104;28;20027;-78
2022/11/03 09:01:23;;;;;;;67.30;39.55;;;12.80;99.90;;;;;;5071674;28;20052;-75
2022/11/03 09:03:49;;;;;;;68.10;36.20;;;12.70;99.90;;;;;;5071237;28;20467;-75
2022/11/03 09:06:15;;;;;;;64.80;39.67;;;12.50;99.90;;;;;;5071041;28;20468;-77
2022/11/03 09:08:40;;;;;;;67.18;36.58;;;12.60;99.90;;;;;;5071750;28;20056;-74
2022/11/03 09:11:06;;;;;;;67.18;38.83;;;12.60;99.90;;;;;;5071434;28;20024;-74
2022/11/03 09:13:32;;;;;;;91.13;50.58;;;12.60;99.90;;;;;;5062048;28;20617;-74
2022/11/03 09:15:58;;;;;;;88.25;47.00;;;12.70;99.90;;;;;;5065674;28;20036;-74
2022/11/03 09:18:23;;;;;;;80.13;44.72;;;12.80;99.90;;;;;;5071474;28;20052;-74
2022/11/03 09:20:49;;;;;;;70.10;39.42;;;12.80;99.90;;;;;;5059716;28;20029;-74
2022/11/03 09:23:15;;;;;;;77.35;46.05;;;12.90;99.90;;;;;;5054859;28;20025;-79
2022/11/03 09:25:41;;;;;;;71.15;38.55;;;13.00;99.90;;;;;;5057251;28;20063;-74
2022/11/03 09:28:06;;;;;;;83.85;41.45;;;12.90;99.90;;;;;;5060814;28;20024;-74
2022/11/03 09:30:32;;;;;;;69.18;39.97;;;12.90;99.90;;;;;;5070933;28;20067;-75
2022/11/03 09:32:58;;;;;;;82.90;46.28;;;12.80;99.90;;;;;;5067730;28;20067;-75
2022/11/03 09:35:24;;;;;;;88.22;44.15;;;12.80;99.90;;;;;;5071263;28;20032;-73
2022/11/03 09:37:49;;;;;;;72.28;40.55;;;12.70;99.90;;;;;;5056932;28;20113;-72
2022/11/03 09:40:16;;;;;;;83.75;47.65;;;12.70;99.90;;;;;;5056525;28;20147;-75
2022/11/03 09:42:42;;;;;;;91.13;49.78;;;12.80;99.90;;;;;;5053565;28;20078;-75
2022/11/03 09:45:09;;;;;;;95.97;49.28;;;13.00;99.90;;;;;;5053227;28;20028;-75
2022/11/03 09:47:38;;;;;;;84.55;44.83;;;12.90;99.90;;;;;;5061111;28;20039;-75
2022/11/03 09:50:05;;;;;;;103.68;50.85;;;13.00;99.90;;;;;;5059121;28;20036;-76
2022/11/03 09:52:35;;;;;;;96.57;48.75;;;12.50;99.90;;;;;;5044678;28;20029;-72
2022/11/03 09:55:01;;;;;;;92.35;46.50;;;12.30;99.90;;;;;;5057525;28;20528;-75
2022/11/03 09:57:27;;;;;;;104.25;56.05;;;12.40;99.90;;;;;;5066439;28;20162;-75
2022/11/03 09:59:54;;;;;;;99.13;49.17;;;12.40;99.90;;;;;;5059987;28;20037;-75
2022/11/03 10:02:27;;;;;;;97.25;50.95;;;12.40;99.90;;;;;;5059486;28;20017;-75
2022/11/03 10:04:55;;;;;;;98.13;46.95;;;12.40;99.90;;;;;;5070692;28;20043;-75
2022/11/03 10:07:22;;;;;;;102.00;49.28;;;12.60;99.90;;;;;;5067521;28;20102;-75
2022/11/03 10:09:51;;;;;;;103.32;50.03;;;12.50;99.90;;;;;;5052642;28;20017;-75
2022/11/03 10:12:17;;;;;;;102.53;53.10;;;12.60;99.90;;;;;;5065418;28;20091;-74
2022/11/03 10:14:45;;;;;;;104.90;47.40;;;12.40;99.90;;;;;;5062454;28;20491;-77
2022/11/03 10:17:18;;;;;;;103.72;48.97;;;12.50;99.90;;;;;;5062641;28;20035;-75
2022/11/03 10:19:48;;;;;;;103.53;48.78;;;12.50;99.90;;;;;;5050367;28;20020;-76
2022/11/03 10:22:15;;;;;;;110.68;52.47;;;12.50;99.90;;;;;;5060429;28;20501;-75
2022/11/03 10:24:40;;;;;;;116.57;56.83;;;12.40;99.90;;;;;;5062182;28;20090;-75
2022/11/03 10:27:21;;;;;;;115.55;57.97;;;12.50;99.90;;;;;;5066920;28;20048;-75
2022/11/03 10:30:09;;;;;;;121.80;58.97;;;12.40;99.90;;;;;;5065528;28;20036;-79
2022/11/03 10:32:35;;;;;;;107.32;51.63;;;12.60;99.90;;;;;;5064367;28;20166;-75
2022/11/03 10:35:22;;;;;;;117.35;55.10;;;12.60;99.90;;;;;;5056275;28;20108;-75
2022/11/03 10:37:48;;;;;;;100.65;47.90;;;12.50;99.90;;;;;;5059093;28;20029;-72
2022/11/03 10:40:35;;;;;;;100.50;49.65;;;12.40;99.90;;;;;;5052574;28;20027;-73
2022/11/03 10:43:01;;;;;;;97.35;48.50;;;12.60;99.90;;;;;;5058450;28;20025;-72
2022/11/03 10:45:27;;;;;;;91.60;45.03;;;12.60;99.90;;;;;;5068052;28;20501;-72
2022/11/03 10:48:00;;;;;;;94.35;48.10;;;12.80;99.90;;;;;;5070039;28;20029;-72
2022/11/03 10:50:27;;;;;;;102.28;48.17;;;12.80;99.90;;;;;;5070092;28;20048;-72
2022/11/03 10:52:53;;;;;;;108.05;53.20;;;12.80;99.90;;;;;;5070144;28;20029;-72
2022/11/03 10:55:21;;;;;;;114.18;49.50;;;12.80;99.90;;;;;;5071572;28;20494;-75
2022/11/03 10:57:50;;;;;;;102.50;48.42;;;12.80;99.90;;;;;;5064830;28;20116;-72
2022/11/03 11:00:18;;;;;;;117.50;60.92;;;12.90;99.90;;;;;;5053090;28;20039;-72
2022/11/03 11:02:45;;;;;;;120.93;53.90;;;13.00;99.90;;;;;;5052016;28;20538;-77
2022/11/03 11:05:19;;;;;;;119.88;53.78;;;12.70;99.90;;;;;;5069495;28;20478;-72
2022/11/03 11:07:45;;;;;;;114.57;59.00;;;12.70;99.90;;;;;;5060119;28;20022;-72
2022/11/03 11:10:19;;;;;;;121.95;60.17;;;12.80;99.90;;;;;;5053516;28;20036;-72
2022/11/03 11:13:05;;;;;;;119.55;58.40;;;12.70;99.90;;;;;;5062030;28;20115;-73
2022/11/03 11:15:49;;;;;;;121.80;54.67;;;12.70;99.90;;;;;;5072010;28;20470;-73
2022/11/03 11:18:27;;;;;;;118.50;59.63;;;12.90;99.90;;;;;;5059294;28;20029;-77
2022/11/03 11:20:54;;;;;;;117.97;53.75;;;12.80;99.90;;;;;;5060052;28;20446;-72
2022/11/03 11:23:26;;;;;;;113.90;55.15;;;13.00;99.90;;;;;;5066659;28;20030;-75
2022/11/03 11:26:16;;;;;;;110.40;55.95;;;13.00;99.90;;;;;;5058925;28;20500;-73
2022/11/03 11:28:44;;;;;;;126.60;59.13;;;13.10;99.90;;;;;;5047905;28;20033;-75
2022/11/03 11:31:25;;;;;;;118.60;59.78;;;13.20;99.90;;;;;;5063361;28;20044;-73
2022/11/03 11:34:18;;;;;;;127.95;60.35;;;13.10;99.90;;;;;;5069550;28;20086;-75
2022/11/03 11:37:04;;;;;;;112.70;57.63;;;13.00;99.90;;;;;;5048507;28;20053;-73
2022/11/03 11:39:30;;;;;;;115.68;54.53;;;12.80;99.90;;;;;;5041013;28;20029;-73
2022/11/03 11:42:14;;;;;;;109.65;52.00;;;13.00;99.90;;;;;;5035140;28;20119;-72
2022/11/03 11:44:44;;;;;;;104.93;54.78;;;13.00;99.90;;;;;;5041673;28;20464;-73
2022/11/03 11:47:31;;;;;;;102.97;51.45;;;12.90;99.90;;;;;;5039399;28;20396;-73
2022/11/03 11:50:06;;;;;;;113.10;52.05;;;13.20;99.90;;;;;;5034848;28;20027;-72
2022/11/03 11:52:40;;;;;;;116.35;53.65;;;13.30;99.90;;;;;;5030317;28;20029;-73
2022/11/03 11:55:16;;;;;;;94.40;46.58;;;13.50;99.90;;;;;;5048973;28;20155;-72
2022/11/03 11:57:41;;;;;;;98.43;51.58;;;13.50;99.90;;;;;;5032186;28;20533;-73
2022/11/03 12:00:33;;;;;;;86.20;47.95;;;13.30;99.90;;;;;;5030784;28;20045;-73
2022/11/03 12:03:05;;;;;;;81.15;43.47;;;13.20;99.90;;;;;;5034935;28;20432;-73
2022/11/03 12:05:34;;;;;;;70.95;44.05;;;13.00;99.90;;;;;;5031532;28;20235;-72
2022/11/03 12:08:01;;;;;;;84.63;44.22;;;13.00;99.90;;;;;;5031578;28;20045;-72
2022/11/03 12:10:29;;;;;;;71.78;40.58;;;13.10;99.90;;;;;;5046338;28;20025;-72
2022/11/03 12:12:56;;;;;;;84.10;43.47;;;13.30;99.90;;;;;;5053660;28;20040;-72
2022/11/03 12:15:53;;;;;;;75.20;43.80;;;13.40;99.90;;;;;;5058144;28;20029;-72
2022/11/03 12:18:38;;;;;;;73.15;42.28;;;13.20;99.90;;;;;;5041038;28;20107;-72
2022/11/03 12:21:09;;;;;;;78.82;44.50;;;13.30;99.90;;;;;;5046645;28;20029;-76
2022/11/03 12:23:40;;;;;;;79.38;42.00;;;13.40;99.90;;;;;;5031296;28;20112;-77
2022/11/03 12:26:28;;;;;;;70.68;39.85;;;13.40;99.90;;;;;;5034286;28;20029;-73
2022/11/03 12:28:54;;;;;;;63.28;40.47;;;13.10;99.90;;;;;;5038762;28;20021;-75
2022/11/03 12:31:20;;;;;;;60.95;37.50;;;12.90;99.90;;;;;;5031118;28;20029;-73
2022/11/03 12:33:46;;;;;;;60.65;39.05;;;13.00;99.90;;;;;;5030474;28;20037;-72
2022/11/03 12:36:12;;;;;;;65.75;38.47;;;12.90;99.90;;;;;;5046604;28;20026;-73
2022/11/03 12:38:37;;;;;;;64.95;37.22;;;13.00;99.90;;;;;;5037539;28;20082;-73
2022/11/03 12:41:23;;;;;;;65.13;37.30;;;13.30;99.90;;;;;;5037843;28;20028;-73
2022/11/03 12:43:52;;;;;;;66.20;38.47;;;13.40;99.90;;;;;;5065735;28;20025;-75
2022/11/03 12:46:19;;;;;;;60.80;37.00;;;13.30;99.90;;;;;;5070979;28;20108;-75
2022/11/03 12:48:46;;;;;;;58.75;33.65;;;13.50;99.90;;;;;;5061355;28;20027;-75
2022/11/03 12:51:14;;;;;;;51.97;32.95;;;13.60;99.90;;;;;;5067919;28;20090;-76
2022/11/03 12:53:40;;;;;;;48.30;33.90;;;13.70;99.90;;;;;;5070775;28;20013;-75
2022/11/03 12:56:07;;;;;;;53.53;33.28;;;13.60;99.90;;;;;;5070896;28;20053;-75
2022/11/03 12:58:34;;;;;;;54.22;34.95;;;13.70;99.90;;;;;;5071086;28;20458;-75
2022/11/03 13:01:00;;;;;;;54.63;35.50;;;13.60;99.90;;;;;;5071516;28;20068;-75